sensor_id;sensor_type;location;lat;lon;timestamp;P1;durP1;ratioP1;P2;durP2;ratioP2
26690;SDS011;14307;51.718;8.938;2023-12-07T00:02:03;173.05;;;67.45;;
26690;SDS011;14307;51.718;8.938;2023-12-07T00:04:30;174.05;;;65.60;;
26690;SDS011;14307;51.718;8.938;2023-12-07T00:06:57;195.88;;;70.70;;
26690;SDS011;14307;51.718;8.938;2023-12-07T00:09:24;222.63;;;77.55;;
26690;SDS011;14307;51.718;8.938;2023-12-07T00:11:51;239.88;;;78.15;;
26690;SDS011;14307;51.718;8.938;2023-12-07T00:14:18;187.65;;;68.68;;
26690;SDS011;14307;51.718;8.938;2023-12-07T00:16:44;159.38;;;64.60;;
26690;SDS011;14307;51.718;8.938;2023-12-07T00:19:11;165.32;;;64.10;;
26690;SDS011;14307;51.718;8.938;2023-12-07T00:21:38;155.95;;;64.20;;
26690;SDS011;14307;51.718;8.938;2023-12-07T00:24:05;164.60;;;65.63;;
26690;SDS011;14307;51.718;8.938;2023-12-07T00:26:32;155.48;;;61.97;;
26690;SDS011;14307;51.718;8.938;2023-12-07T00:28:59;154.45;;;63.88;;
26690;SDS011;14307;51.718;8.938;2023-12-07T00:31:25;185.93;;;69.18;;
26690;SDS011;14307;51.718;8.938;2023-12-07T00:33:52;171.48;;;64.78;;
26690;SDS011;14307;51.718;8.938;2023-12-07T00:36:19;172.13;;;64.38;;
26690;SDS011;14307;51.718;8.938;2023-12-07T00:38:46;190.23;;;67.53;;
26690;SDS011;14307;51.718;8.938;2023-12-07T00:41:13;178.23;;;65.22;;
26690;SDS011;14307;51.718;8.938;2023-12-07T00:43:40;194.10;;;69.95;;
26690;SDS011;14307;51.718;8.938;2023-12-07T00:46:07;178.05;;;67.18;;
26690;SDS011;14307;51.718;8.938;2023-12-07T00:48:34;172.80;;;63.00;;
26690;SDS011;14307;51.718;8.938;2023-12-07T00:51:01;179.77;;;67.63;;
26690;SDS011;14307;51.718;8.938;2023-12-07T00:53:29;195.10;;;71.10;;
26690;SDS011;14307;51.718;8.938;2023-12-07T00:55:55;204.57;;;74.18;;
26690;SDS011;14307;51.718;8.938;2023-12-07T00:58:23;187.38;;;70.90;;
26690;SDS011;14307;51.718;8.938;2023-12-07T01:00:50;236.50;;;76.78;;
26690;SDS011;14307;51.718;8.938;2023-12-07T01:03:17;209.85;;;71.47;;
26690;SDS011;14307;51.718;8.938;2023-12-07T01:05:44;212.10;;;71.13;;
26690;SDS011;14307;51.718;8.938;2023-12-07T01:08:12;242.43;;;80.20;;
26690;SDS011;14307;51.718;8.938;2023-12-07T01:10:39;263.63;;;87.68;;
26690;SDS011;14307;51.718;8.938;2023-12-07T01:13:06;266.00;;;84.15;;
26690;SDS011;14307;51.718;8.938;2023-12-07T01:15:33;253.57;;;81.63;;
26690;SDS011;14307;51.718;8.938;2023-12-07T01:18:00;290.73;;;83.93;;
26690;SDS011;14307;51.718;8.938;2023-12-07T01:20:27;278.60;;;86.22;;
26690;SDS011;14307;51.718;8.938;2023-12-07T01:22:54;268.08;;;85.70;;
26690;SDS011;14307;51.718;8.938;2023-12-07T01:25:20;278.73;;;86.32;;
26690;SDS011;14307;51.718;8.938;2023-12-07T01:27:49;290.70;;;85.55;;
26690;SDS011;14307;51.718;8.938;2023-12-07T01:30:16;315.88;;;90.88;;
26690;SDS011;14307;51.718;8.938;2023-12-07T01:32:43;362.58;;;99.35;;
26690;SDS011;14307;51.718;8.938;2023-12-07T01:35:10;392.50;;;101.85;;
26690;SDS011;14307;51.718;8.938;2023-12-07T01:37:37;454.67;;;107.22;;
26690;SDS011;14307;51.718;8.938;2023-12-07T01:40:05;403.58;;;101.88;;
26690;SDS011;14307;51.718;8.938;2023-12-07T01:42:36;405.40;;;101.10;;
26690;SDS011;14307;51.718;8.938;2023-12-07T01:45:04;389.08;;;96.50;;
26690;SDS011;14307;51.718;8.938;2023-12-07T01:47:32;452.80;;;104.47;;
26690;SDS011;14307;51.718;8.938;2023-12-07T01:50:01;397.52;;;99.00;;
26690;SDS011;14307;51.718;8.938;2023-12-07T01:52:30;392.17;;;99.68;;
26690;SDS011;14307;51.718;8.938;2023-12-07T01:54:57;343.92;;;92.72;;
26690;SDS011;14307;51.718;8.938;2023-12-07T01:57:24;259.45;;;79.45;;
26690;SDS011;14307;51.718;8.938;2023-12-07T01:59:51;298.77;;;88.47;;
26690;SDS011;14307;51.718;8.938;2023-12-07T02:02:18;252.63;;;82.45;;
26690;SDS011;14307;51.718;8.938;2023-12-07T02:04:45;202.85;;;67.68;;
26690;SDS011;14307;51.718;8.938;2023-12-07T02:07:12;210.63;;;71.15;;
26690;SDS011;14307;51.718;8.938;2023-12-07T02:09:39;201.73;;;73.90;;
26690;SDS011;14307;51.718;8.938;2023-12-07T02:12:06;204.07;;;72.10;;
26690;SDS011;14307;51.718;8.938;2023-12-07T02:14:34;200.75;;;72.25;;
26690;SDS011;14307;51.718;8.938;2023-12-07T02:22:17;165.13;;;60.17;;
26690;SDS011;14307;51.718;8.938;2023-12-07T02:24:53;170.05;;;65.30;;
26690;SDS011;14307;51.718;8.938;2023-12-07T02:27:41;153.00;;;63.08;;
26690;SDS011;14307;51.718;8.938;2023-12-07T02:32:40;177.10;;;66.63;;
26690;SDS011;14307;51.718;8.938;2023-12-07T02:35:09;176.40;;;65.97;;
26690;SDS011;14307;51.718;8.938;2023-12-07T02:37:45;158.55;;;61.47;;
26690;SDS011;14307;51.718;8.938;2023-12-07T02:40:16;151.63;;;61.38;;
26690;SDS011;14307;51.718;8.938;2023-12-07T02:42:48;156.63;;;63.60;;
26690;SDS011;14307;51.718;8.938;2023-12-07T02:45:15;159.43;;;63.00;;
26690;SDS011;14307;51.718;8.938;2023-12-07T02:47:42;143.13;;;61.88;;
26690;SDS011;14307;51.718;8.938;2023-12-07T02:50:12;135.43;;;57.20;;
26690;SDS011;14307;51.718;8.938;2023-12-07T02:52:39;156.98;;;61.10;;
26690;SDS011;14307;51.718;8.938;2023-12-07T02:55:07;149.43;;;61.08;;
26690;SDS011;14307;51.718;8.938;2023-12-07T02:57:35;154.30;;;60.55;;
26690;SDS011;14307;51.718;8.938;2023-12-07T03:00:02;161.30;;;63.88;;
26690;SDS011;14307;51.718;8.938;2023-12-07T03:02:34;157.10;;;63.33;;
26690;SDS011;14307;51.718;8.938;2023-12-07T03:05:02;149.30;;;61.65;;
26690;SDS011;14307;51.718;8.938;2023-12-07T03:07:30;137.65;;;59.03;;
26690;SDS011;14307;51.718;8.938;2023-12-07T03:09:56;147.52;;;61.20;;
26690;SDS011;14307;51.718;8.938;2023-12-07T03:12:23;156.30;;;62.75;;
26690;SDS011;14307;51.718;8.938;2023-12-07T03:14:51;164.93;;;65.70;;
26690;SDS011;14307;51.718;8.938;2023-12-07T03:17:18;162.35;;;65.10;;
26690;SDS011;14307;51.718;8.938;2023-12-07T03:19:45;168.60;;;67.63;;
26690;SDS011;14307;51.718;8.938;2023-12-07T03:22:12;166.20;;;67.75;;
26690;SDS011;14307;51.718;8.938;2023-12-07T03:24:40;170.80;;;67.32;;
26690;SDS011;14307;51.718;8.938;2023-12-07T03:27:12;174.50;;;68.43;;
26690;SDS011;14307;51.718;8.938;2023-12-07T03:29:38;178.65;;;69.90;;
26690;SDS011;14307;51.718;8.938;2023-12-07T03:32:05;184.07;;;68.88;;
26690;SDS011;14307;51.718;8.938;2023-12-07T03:34:32;179.57;;;65.30;;
26690;SDS011;14307;51.718;8.938;2023-12-07T03:36:59;192.73;;;71.22;;
26690;SDS011;14307;51.718;8.938;2023-12-07T03:39:26;192.70;;;68.47;;
26690;SDS011;14307;51.718;8.938;2023-12-07T03:41:53;198.90;;;73.03;;
26690;SDS011;14307;51.718;8.938;2023-12-07T03:44:20;206.93;;;72.70;;
26690;SDS011;14307;51.718;8.938;2023-12-07T03:46:47;205.63;;;76.07;;
26690;SDS011;14307;51.718;8.938;2023-12-07T03:49:14;248.98;;;81.72;;
26690;SDS011;14307;51.718;8.938;2023-12-07T03:51:41;246.40;;;81.40;;
26690;SDS011;14307;51.718;8.938;2023-12-07T03:54:08;256.70;;;83.65;;
26690;SDS011;14307;51.718;8.938;2023-12-07T03:56:35;231.73;;;83.80;;
26690;SDS011;14307;51.718;8.938;2023-12-07T03:59:02;245.68;;;82.47;;
26690;SDS011;14307;51.718;8.938;2023-12-07T04:01:29;224.45;;;79.78;;
26690;SDS011;14307;51.718;8.938;2023-12-07T04:03:56;214.43;;;77.45;;
26690;SDS011;14307;51.718;8.938;2023-12-07T04:06:24;214.85;;;79.57;;
26690;SDS011;14307;51.718;8.938;2023-12-07T04:08:51;218.18;;;78.78;;
26690;SDS011;14307;51.718;8.938;2023-12-07T04:11:19;220.63;;;76.75;;
26690;SDS011;14307;51.718;8.938;2023-12-07T04:13:45;204.05;;;76.32;;
26690;SDS011;14307;51.718;8.938;2023-12-07T04:16:12;216.70;;;75.63;;
26690;SDS011;14307;51.718;8.938;2023-12-07T04:18:39;221.63;;;75.03;;
26690;SDS011;14307;51.718;8.938;2023-12-07T04:21:06;236.45;;;81.15;;
26690;SDS011;14307;51.718;8.938;2023-12-07T04:23:33;225.43;;;82.22;;
26690;SDS011;14307;51.718;8.938;2023-12-07T04:26:00;216.60;;;78.60;;
26690;SDS011;14307;51.718;8.938;2023-12-07T04:28:26;216.60;;;80.65;;
26690;SDS011;14307;51.718;8.938;2023-12-07T04:31:05;221.13;;;79.43;;
26690;SDS011;14307;51.718;8.938;2023-12-07T04:33:32;220.65;;;81.72;;
26690;SDS011;14307;51.718;8.938;2023-12-07T04:35:59;206.52;;;77.82;;
26690;SDS011;14307;51.718;8.938;2023-12-07T04:38:26;214.63;;;80.90;;
26690;SDS011;14307;51.718;8.938;2023-12-07T04:40:53;231.52;;;82.07;;
26690;SDS011;14307;51.718;8.938;2023-12-07T04:43:19;225.70;;;81.60;;
26690;SDS011;14307;51.718;8.938;2023-12-07T04:45:46;206.30;;;76.22;;
26690;SDS011;14307;51.718;8.938;2023-12-07T04:48:13;187.00;;;72.18;;
26690;SDS011;14307;51.718;8.938;2023-12-07T04:50:42;206.75;;;78.70;;
26690;SDS011;14307;51.718;8.938;2023-12-07T04:53:09;197.80;;;76.53;;
26690;SDS011;14307;51.718;8.938;2023-12-07T04:55:36;220.43;;;79.47;;
26690;SDS011;14307;51.718;8.938;2023-12-07T04:58:03;238.73;;;81.88;;
26690;SDS011;14307;51.718;8.938;2023-12-07T05:00:30;230.07;;;81.10;;
26690;SDS011;14307;51.718;8.938;2023-12-07T05:02:57;214.13;;;76.78;;
26690;SDS011;14307;51.718;8.938;2023-12-07T05:05:24;219.63;;;79.20;;
26690;SDS011;14307;51.718;8.938;2023-12-07T05:07:51;215.85;;;80.32;;
26690;SDS011;14307;51.718;8.938;2023-12-07T05:10:18;246.90;;;82.65;;
26690;SDS011;14307;51.718;8.938;2023-12-07T05:12:44;223.32;;;82.45;;
26690;SDS011;14307;51.718;8.938;2023-12-07T05:15:11;218.90;;;81.32;;
26690;SDS011;14307;51.718;8.938;2023-12-07T05:17:39;213.63;;;82.03;;
26690;SDS011;14307;51.718;8.938;2023-12-07T05:20:05;193.57;;;79.22;;
26690;SDS011;14307;51.718;8.938;2023-12-07T05:22:33;208.15;;;79.60;;
26690;SDS011;14307;51.718;8.938;2023-12-07T05:25:00;209.65;;;83.13;;
26690;SDS011;14307;51.718;8.938;2023-12-07T05:27:27;214.73;;;85.13;;
26690;SDS011;14307;51.718;8.938;2023-12-07T05:29:55;228.60;;;88.97;;
26690;SDS011;14307;51.718;8.938;2023-12-07T05:32:22;224.75;;;84.13;;
26690;SDS011;14307;51.718;8.938;2023-12-07T05:34:49;224.85;;;81.47;;
26690;SDS011;14307;51.718;8.938;2023-12-07T05:37:16;215.38;;;84.38;;
26690;SDS011;14307;51.718;8.938;2023-12-07T05:39:43;245.07;;;84.05;;
26690;SDS011;14307;51.718;8.938;2023-12-07T05:42:10;225.73;;;85.45;;
26690;SDS011;14307;51.718;8.938;2023-12-07T05:44:37;216.90;;;84.50;;
26690;SDS011;14307;51.718;8.938;2023-12-07T05:47:04;219.70;;;82.70;;
26690;SDS011;14307;51.718;8.938;2023-12-07T05:49:31;219.55;;;83.38;;
26690;SDS011;14307;51.718;8.938;2023-12-07T05:51:58;212.00;;;78.07;;
26690;SDS011;14307;51.718;8.938;2023-12-07T05:54:25;214.35;;;82.20;;
26690;SDS011;14307;51.718;8.938;2023-12-07T05:56:52;210.95;;;81.03;;
26690;SDS011;14307;51.718;8.938;2023-12-07T05:59:19;219.30;;;83.20;;
26690;SDS011;14307;51.718;8.938;2023-12-07T06:01:45;225.27;;;82.80;;
26690;SDS011;14307;51.718;8.938;2023-12-07T06:04:12;208.77;;;78.55;;
26690;SDS011;14307;51.718;8.938;2023-12-07T06:06:39;212.63;;;78.97;;
26690;SDS011;14307;51.718;8.938;2023-12-07T06:09:07;220.32;;;80.20;;
26690;SDS011;14307;51.718;8.938;2023-12-07T06:11:34;237.05;;;80.65;;
26690;SDS011;14307;51.718;8.938;2023-12-07T06:14:01;217.32;;;81.30;;
26690;SDS011;14307;51.718;8.938;2023-12-07T06:16:29;232.57;;;82.85;;
26690;SDS011;14307;51.718;8.938;2023-12-07T06:18:55;223.75;;;80.43;;
26690;SDS011;14307;51.718;8.938;2023-12-07T06:21:22;230.90;;;81.82;;
26690;SDS011;14307;51.718;8.938;2023-12-07T06:23:51;238.25;;;84.25;;
26690;SDS011;14307;51.718;8.938;2023-12-07T06:26:19;264.67;;;98.15;;
26690;SDS011;14307;51.718;8.938;2023-12-07T06:28:46;240.27;;;86.75;;
26690;SDS011;14307;51.718;8.938;2023-12-07T06:31:13;313.10;;;125.10;;
26690;SDS011;14307;51.718;8.938;2023-12-07T06:33:41;252.60;;;87.82;;
26690;SDS011;14307;51.718;8.938;2023-12-07T06:36:09;230.40;;;81.07;;
26690;SDS011;14307;51.718;8.938;2023-12-07T06:38:36;224.98;;;78.95;;
26690;SDS011;14307;51.718;8.938;2023-12-07T06:41:04;239.70;;;79.05;;
26690;SDS011;14307;51.718;8.938;2023-12-07T06:43:31;243.50;;;81.88;;
26690;SDS011;14307;51.718;8.938;2023-12-07T06:45:58;243.77;;;83.88;;
26690;SDS011;14307;51.718;8.938;2023-12-07T06:48:25;255.18;;;86.60;;
26690;SDS011;14307;51.718;8.938;2023-12-07T06:50:52;242.55;;;82.97;;
26690;SDS011;14307;51.718;8.938;2023-12-07T06:53:19;234.23;;;80.47;;
26690;SDS011;14307;51.718;8.938;2023-12-07T06:55:46;256.35;;;90.35;;
26690;SDS011;14307;51.718;8.938;2023-12-07T06:58:13;245.52;;;86.22;;
26690;SDS011;14307;51.718;8.938;2023-12-07T07:00:39;280.63;;;88.97;;
26690;SDS011;14307;51.718;8.938;2023-12-07T07:03:06;245.23;;;86.18;;
26690;SDS011;14307;51.718;8.938;2023-12-07T07:05:33;243.68;;;82.82;;
26690;SDS011;14307;51.718;8.938;2023-12-07T07:08:00;224.10;;;80.90;;
26690;SDS011;14307;51.718;8.938;2023-12-07T07:10:27;227.60;;;82.65;;
26690;SDS011;14307;51.718;8.938;2023-12-07T07:12:54;242.20;;;83.93;;
26690;SDS011;14307;51.718;8.938;2023-12-07T07:15:21;254.38;;;84.68;;
26690;SDS011;14307;51.718;8.938;2023-12-07T07:17:49;255.13;;;83.45;;
26690;SDS011;14307;51.718;8.938;2023-12-07T07:20:16;242.35;;;77.15;;
26690;SDS011;14307;51.718;8.938;2023-12-07T07:22:43;244.45;;;80.93;;
26690;SDS011;14307;51.718;8.938;2023-12-07T07:25:11;244.07;;;79.32;;
26690;SDS011;14307;51.718;8.938;2023-12-07T07:27:38;226.68;;;74.63;;
26690;SDS011;14307;51.718;8.938;2023-12-07T07:30:05;232.55;;;75.50;;
26690;SDS011;14307;51.718;8.938;2023-12-07T07:32:33;219.77;;;75.43;;
26690;SDS011;14307;51.718;8.938;2023-12-07T07:35:00;231.27;;;75.93;;
26690;SDS011;14307;51.718;8.938;2023-12-07T07:37:26;244.48;;;77.43;;
26690;SDS011;14307;51.718;8.938;2023-12-07T07:39:54;241.00;;;80.40;;
26690;SDS011;14307;51.718;8.938;2023-12-07T07:42:21;229.70;;;77.30;;
26690;SDS011;14307;51.718;8.938;2023-12-07T07:44:47;257.85;;;86.05;;
26690;SDS011;14307;51.718;8.938;2023-12-07T07:47:14;248.48;;;86.55;;
26690;SDS011;14307;51.718;8.938;2023-12-07T07:49:41;253.35;;;84.78;;
26690;SDS011;14307;51.718;8.938;2023-12-07T07:52:08;223.60;;;79.70;;
26690;SDS011;14307;51.718;8.938;2023-12-07T07:54:34;233.60;;;84.88;;
26690;SDS011;14307;51.718;8.938;2023-12-07T07:57:03;235.18;;;79.95;;
26690;SDS011;14307;51.718;8.938;2023-12-07T07:59:30;242.02;;;78.10;;
26690;SDS011;14307;51.718;8.938;2023-12-07T08:01:57;190.88;;;71.07;;
26690;SDS011;14307;51.718;8.938;2023-12-07T08:04:24;215.85;;;74.25;;
26690;SDS011;14307;51.718;8.938;2023-12-07T08:06:51;202.02;;;73.13;;
26690;SDS011;14307;51.718;8.938;2023-12-07T08:09:18;206.45;;;73.80;;
26690;SDS011;14307;51.718;8.938;2023-12-07T08:11:45;230.77;;;85.50;;
26690;SDS011;14307;51.718;8.938;2023-12-07T08:14:12;210.82;;;84.53;;
26690;SDS011;14307;51.718;8.938;2023-12-07T08:16:42;220.75;;;91.20;;
26690;SDS011;14307;51.718;8.938;2023-12-07T08:19:13;230.48;;;88.38;;
26690;SDS011;14307;51.718;8.938;2023-12-07T08:21:40;223.55;;;83.88;;
26690;SDS011;14307;51.718;8.938;2023-12-07T08:24:07;217.68;;;87.07;;
26690;SDS011;14307;51.718;8.938;2023-12-07T08:26:34;183.82;;;81.32;;
26690;SDS011;14307;51.718;8.938;2023-12-07T08:29:01;195.35;;;79.32;;
26690;SDS011;14307;51.718;8.938;2023-12-07T08:31:30;192.80;;;79.45;;
26690;SDS011;14307;51.718;8.938;2023-12-07T08:33:57;186.48;;;79.18;;
26690;SDS011;14307;51.718;8.938;2023-12-07T08:36:24;200.85;;;82.80;;
26690;SDS011;14307;51.718;8.938;2023-12-07T08:38:51;180.40;;;80.10;;
26690;SDS011;14307;51.718;8.938;2023-12-07T08:41:18;167.73;;;77.93;;
26690;SDS011;14307;51.718;8.938;2023-12-07T08:43:45;187.65;;;77.82;;
26690;SDS011;14307;51.718;8.938;2023-12-07T08:46:12;171.77;;;79.63;;
26690;SDS011;14307;51.718;8.938;2023-12-07T08:48:39;194.35;;;83.47;;
26690;SDS011;14307;51.718;8.938;2023-12-07T08:51:08;203.07;;;88.65;;
26690;SDS011;14307;51.718;8.938;2023-12-07T08:53:35;176.60;;;80.15;;
26690;SDS011;14307;51.718;8.938;2023-12-07T08:56:03;213.13;;;92.70;;
26690;SDS011;14307;51.718;8.938;2023-12-07T08:58:31;193.70;;;84.88;;
26690;SDS011;14307;51.718;8.938;2023-12-07T09:00:57;192.38;;;86.93;;
26690;SDS011;14307;51.718;8.938;2023-12-07T09:03:24;180.02;;;79.97;;
26690;SDS011;14307;51.718;8.938;2023-12-07T09:05:58;163.25;;;77.85;;
26690;SDS011;14307;51.718;8.938;2023-12-07T09:08:26;153.52;;;79.60;;
26690;SDS011;14307;51.718;8.938;2023-12-07T09:10:53;148.07;;;77.13;;
26690;SDS011;14307;51.718;8.938;2023-12-07T09:13:20;134.93;;;75.68;;
26690;SDS011;14307;51.718;8.938;2023-12-07T09:15:46;131.85;;;79.97;;
26690;SDS011;14307;51.718;8.938;2023-12-07T09:18:13;132.18;;;74.93;;
26690;SDS011;14307;51.718;8.938;2023-12-07T09:20:40;128.52;;;78.00;;
26690;SDS011;14307;51.718;8.938;2023-12-07T09:23:12;114.05;;;73.57;;
26690;SDS011;14307;51.718;8.938;2023-12-07T09:25:41;105.90;;;70.50;;
26690;SDS011;14307;51.718;8.938;2023-12-07T09:28:09;106.10;;;72.15;;
26690;SDS011;14307;51.718;8.938;2023-12-07T09:30:36;111.53;;;72.93;;
26690;SDS011;14307;51.718;8.938;2023-12-07T09:33:02;102.32;;;71.57;;
26690;SDS011;14307;51.718;8.938;2023-12-07T09:35:29;101.10;;;72.68;;
26690;SDS011;14307;51.718;8.938;2023-12-07T09:37:57;102.95;;;73.90;;
26690;SDS011;14307;51.718;8.938;2023-12-07T09:40:23;113.03;;;77.97;;
26690;SDS011;14307;51.718;8.938;2023-12-07T09:42:51;94.30;;;72.65;;
26690;SDS011;14307;51.718;8.938;2023-12-07T09:45:19;89.80;;;72.05;;
26690;SDS011;14307;51.718;8.938;2023-12-07T09:47:48;92.93;;;76.32;;
26690;SDS011;14307;51.718;8.938;2023-12-07T09:50:17;104.63;;;87.07;;
26690;SDS011;14307;51.718;8.938;2023-12-07T09:52:48;78.95;;;70.60;;
26690;SDS011;14307;51.718;8.938;2023-12-07T09:55:29;84.47;;;72.38;;
26690;SDS011;14307;51.718;8.938;2023-12-07T09:57:57;84.40;;;74.97;;
26690;SDS011;14307;51.718;8.938;2023-12-07T10:00:26;84.30;;;75.40;;
26690;SDS011;14307;51.718;8.938;2023-12-07T10:02:52;87.80;;;78.65;;
26690;SDS011;14307;51.718;8.938;2023-12-07T10:05:21;98.53;;;89.63;;
26690;SDS011;14307;51.718;8.938;2023-12-07T10:07:49;84.40;;;75.63;;
26690;SDS011;14307;51.718;8.938;2023-12-07T10:10:18;79.40;;;71.38;;
26690;SDS011;14307;51.718;8.938;2023-12-07T10:12:52;81.72;;;73.72;;
26690;SDS011;14307;51.718;8.938;2023-12-07T10:15:20;78.35;;;70.50;;
26690;SDS011;14307;51.718;8.938;2023-12-07T10:17:58;69.28;;;57.63;;
26690;SDS011;14307;51.718;8.938;2023-12-07T10:20:27;64.53;;;58.30;;
26690;SDS011;14307;51.718;8.938;2023-12-07T10:25:31;72.72;;;66.25;;
26690;SDS011;14307;51.718;8.938;2023-12-07T10:28:00;73.45;;;67.28;;
26690;SDS011;14307;51.718;8.938;2023-12-07T10:30:27;78.57;;;72.30;;
26690;SDS011;14307;51.718;8.938;2023-12-07T10:32:57;74.93;;;69.03;;
26690;SDS011;14307;51.718;8.938;2023-12-07T10:35:24;76.00;;;70.40;;
26690;SDS011;14307;51.718;8.938;2023-12-07T10:37:51;76.72;;;70.68;;
26690;SDS011;14307;51.718;8.938;2023-12-07T10:40:19;77.55;;;71.70;;
26690;SDS011;14307;51.718;8.938;2023-12-07T10:45:42;73.80;;;68.00;;
26690;SDS011;14307;51.718;8.938;2023-12-07T10:48:17;77.88;;;71.80;;
26690;SDS011;14307;51.718;8.938;2023-12-07T10:50:45;73.38;;;67.53;;
26690;SDS011;14307;51.718;8.938;2023-12-07T10:53:21;63.30;;;57.72;;
26690;SDS011;14307;51.718;8.938;2023-12-07T10:55:59;73.03;;;67.03;;
26690;SDS011;14307;51.718;8.938;2023-12-07T10:58:27;78.03;;;71.95;;
26690;SDS011;14307;51.718;8.938;2023-12-07T11:01:01;80.68;;;73.50;;
26690;SDS011;14307;51.718;8.938;2023-12-07T11:03:36;89.28;;;80.85;;
26690;SDS011;14307;51.718;8.938;2023-12-07T11:06:07;75.57;;;69.05;;
26690;SDS011;14307;51.718;8.938;2023-12-07T11:08:57;76.30;;;70.10;;
26690;SDS011;14307;51.718;8.938;2023-12-07T11:14:19;75.78;;;69.85;;
26690;SDS011;14307;51.718;8.938;2023-12-07T11:16:47;67.18;;;61.97;;
26690;SDS011;14307;51.718;8.938;2023-12-07T11:22:06;65.78;;;60.08;;
26690;SDS011;14307;51.718;8.938;2023-12-07T11:24:34;67.47;;;62.00;;
26690;SDS011;14307;51.718;8.938;2023-12-07T11:27:02;63.97;;;59.03;;
26690;SDS011;14307;51.718;8.938;2023-12-07T11:29:30;60.13;;;54.92;;
26690;SDS011;14307;51.718;8.938;2023-12-07T11:32:07;53.83;;;49.20;;
26690;SDS011;14307;51.718;8.938;2023-12-07T11:34:59;59.15;;;54.63;;
26690;SDS011;14307;51.718;8.938;2023-12-07T11:38:00;61.83;;;57.08;;
26690;SDS011;14307;51.718;8.938;2023-12-07T11:40:27;69.80;;;64.80;;
26690;SDS011;14307;51.718;8.938;2023-12-07T11:42:58;64.53;;;59.78;;
26690;SDS011;14307;51.718;8.938;2023-12-07T11:45:38;63.28;;;58.65;;
26690;SDS011;14307;51.718;8.938;2023-12-07T11:48:14;59.88;;;56.00;;
26690;SDS011;14307;51.718;8.938;2023-12-07T11:53:31;60.53;;;56.10;;
26690;SDS011;14307;51.718;8.938;2023-12-07T11:56:00;63.50;;;59.25;;
26690;SDS011;14307;51.718;8.938;2023-12-07T11:58:50;59.05;;;55.33;;
26690;SDS011;14307;51.718;8.938;2023-12-07T12:01:25;62.10;;;57.87;;
26690;SDS011;14307;51.718;8.938;2023-12-07T12:03:54;62.70;;;58.58;;
26690;SDS011;14307;51.718;8.938;2023-12-07T12:06:47;61.35;;;56.92;;
26690;SDS011;14307;51.718;8.938;2023-12-07T12:09:21;56.70;;;52.45;;
26690;SDS011;14307;51.718;8.938;2023-12-07T12:12:03;55.78;;;51.60;;
26690;SDS011;14307;51.718;8.938;2023-12-07T12:14:30;47.67;;;43.95;;
26690;SDS011;14307;51.718;8.938;2023-12-07T12:16:58;61.58;;;56.72;;
26690;SDS011;14307;51.718;8.938;2023-12-07T12:19:25;47.45;;;44.03;;
26690;SDS011;14307;51.718;8.938;2023-12-07T12:25:06;56.08;;;52.45;;
26690;SDS011;14307;51.718;8.938;2023-12-07T12:27:34;54.60;;;51.15;;
26690;SDS011;14307;51.718;8.938;2023-12-07T12:30:02;54.85;;;50.88;;
26690;SDS011;14307;51.718;8.938;2023-12-07T12:32:42;55.17;;;51.67;;
26690;SDS011;14307;51.718;8.938;2023-12-07T12:35:12;60.97;;;55.83;;
26690;SDS011;14307;51.718;8.938;2023-12-07T12:38:08;56.53;;;52.88;;
26690;SDS011;14307;51.718;8.938;2023-12-07T12:40:44;51.15;;;47.35;;
26690;SDS011;14307;51.718;8.938;2023-12-07T12:43:11;52.80;;;49.05;;
26690;SDS011;14307;51.718;8.938;2023-12-07T12:45:39;153.48;;;96.43;;
26690;SDS011;14307;51.718;8.938;2023-12-07T12:48:11;70.82;;;63.80;;
26690;SDS011;14307;51.718;8.938;2023-12-07T12:50:38;62.90;;;57.33;;
26690;SDS011;14307;51.718;8.938;2023-12-07T12:53:10;54.55;;;50.22;;
26690;SDS011;14307;51.718;8.938;2023-12-07T12:55:38;54.00;;;50.08;;
26690;SDS011;14307;51.718;8.938;2023-12-07T12:58:09;51.88;;;47.55;;
26690;SDS011;14307;51.718;8.938;2023-12-07T13:00:54;53.15;;;49.05;;
26690;SDS011;14307;51.718;8.938;2023-12-07T13:03:30;50.63;;;46.80;;
26690;SDS011;14307;51.718;8.938;2023-12-07T13:05:58;57.72;;;52.70;;
26690;SDS011;14307;51.718;8.938;2023-12-07T13:11:31;66.30;;;59.80;;
26690;SDS011;14307;51.718;8.938;2023-12-07T13:13:59;55.92;;;50.85;;
26690;SDS011;14307;51.718;8.938;2023-12-07T13:16:26;57.75;;;52.72;;
26690;SDS011;14307;51.718;8.938;2023-12-07T13:18:53;53.35;;;48.92;;
26690;SDS011;14307;51.718;8.938;2023-12-07T13:21:23;51.15;;;47.45;;
26690;SDS011;14307;51.718;8.938;2023-12-07T13:23:50;44.47;;;40.47;;
26690;SDS011;14307;51.718;8.938;2023-12-07T13:26:18;54.53;;;50.10;;
26690;SDS011;14307;51.718;8.938;2023-12-07T13:28:45;56.70;;;51.80;;
26690;SDS011;14307;51.718;8.938;2023-12-07T13:31:19;53.33;;;49.20;;
26690;SDS011;14307;51.718;8.938;2023-12-07T13:34:17;52.30;;;47.83;;
26690;SDS011;14307;51.718;8.938;2023-12-07T13:36:56;51.35;;;47.47;;
26690;SDS011;14307;51.718;8.938;2023-12-07T13:39:24;55.00;;;50.83;;
26690;SDS011;14307;51.718;8.938;2023-12-07T13:41:57;56.90;;;51.95;;
26690;SDS011;14307;51.718;8.938;2023-12-07T13:44:27;52.28;;;48.10;;
26690;SDS011;14307;51.718;8.938;2023-12-07T13:46:55;50.28;;;46.50;;
26690;SDS011;14307;51.718;8.938;2023-12-07T13:49:31;47.88;;;44.08;;
26690;SDS011;14307;51.718;8.938;2023-12-07T13:52:09;46.95;;;43.42;;
26690;SDS011;14307;51.718;8.938;2023-12-07T13:54:36;50.33;;;46.38;;
26690;SDS011;14307;51.718;8.938;2023-12-07T13:57:06;51.78;;;47.83;;
26690;SDS011;14307;51.718;8.938;2023-12-07T13:59:34;50.58;;;46.80;;
26690;SDS011;14307;51.718;8.938;2023-12-07T14:02:03;48.17;;;44.38;;
26690;SDS011;14307;51.718;8.938;2023-12-07T14:04:40;48.97;;;45.20;;
26690;SDS011;14307;51.718;8.938;2023-12-07T14:07:11;49.83;;;46.00;;
26690;SDS011;14307;51.718;8.938;2023-12-07T14:09:40;51.60;;;47.58;;
26690;SDS011;14307;51.718;8.938;2023-12-07T14:12:22;50.60;;;46.78;;
26690;SDS011;14307;51.718;8.938;2023-12-07T14:14:49;48.85;;;44.90;;
26690;SDS011;14307;51.718;8.938;2023-12-07T14:17:16;48.97;;;45.00;;
26690;SDS011;14307;51.718;8.938;2023-12-07T14:19:48;46.55;;;42.80;;
26690;SDS011;14307;51.718;8.938;2023-12-07T14:22:16;46.40;;;42.65;;
26690;SDS011;14307;51.718;8.938;2023-12-07T14:24:44;47.17;;;43.33;;
26690;SDS011;14307;51.718;8.938;2023-12-07T14:27:11;45.42;;;41.45;;
26690;SDS011;14307;51.718;8.938;2023-12-07T14:29:38;49.03;;;44.55;;
26690;SDS011;14307;51.718;8.938;2023-12-07T14:32:05;47.00;;;42.15;;
26690;SDS011;14307;51.718;8.938;2023-12-07T14:34:32;46.97;;;41.50;;
26690;SDS011;14307;51.718;8.938;2023-12-07T14:37:04;44.53;;;38.83;;
26690;SDS011;14307;51.718;8.938;2023-12-07T14:39:34;48.50;;;39.72;;
26690;SDS011;14307;51.718;8.938;2023-12-07T14:42:02;53.78;;;39.15;;
26690;SDS011;14307;51.718;8.938;2023-12-07T14:44:33;40.40;;;33.67;;
26690;SDS011;14307;51.718;8.938;2023-12-07T14:47:01;32.40;;;28.88;;
26690;SDS011;14307;51.718;8.938;2023-12-07T14:49:28;41.33;;;32.03;;
26690;SDS011;14307;51.718;8.938;2023-12-07T14:51:55;47.17;;;36.13;;